Time;durP1;ratioP1;P1;durP2;ratioP2;P2;SDS_P1;SDS_P2;PMS_P1;PMS_P2;Temp;Humidity;BMP_temperature;BMP_pressure;BME280_temperature;BME280_humidity;BME280_pressure;Samples;Min_cycle;Max_cycle;Signal;HPM_P1;HPM_P2
2022/08/18 00:02:41;;;;;;;18.80;14.75;;;;;;;23.41;84.17;99760.50;2730615;84;21068;-89
2022/08/18 00:06:42;;;;;;;19.80;15.30;;;;;;;23.43;84.15;99763.82;2754059;84;21069;-89
2022/08/18 00:10:43;;;;;;;21.80;18.80;;;;;;;23.44;84.70;99760.56;2761393;84;21702;-89
2022/08/18 00:14:46;;;;;;;21.12;17.05;;;;;;;23.39;84.55;99758.00;2754381;86;21031;-89
2022/08/18 00:18:49;;;;;;;20.12;16.50;;;;;;;23.37;84.13;99756.55;2730267;84;21060;-89
2022/08/18 00:22:51;;;;;;;30.12;20.92;;;;;;;23.29;84.11;99767.70;2741347;86;21027;-89
2022/08/18 00:26:53;;;;;;;24.82;15.80;;;;;;;23.11;84.92;99761.14;2743304;84;21003;-89
2022/08/18 00:30:55;;;;;;;27.65;18.05;;;;;;;23.09;85.51;99759.19;2745896;84;21002;-89
2022/08/18 00:34:56;;;;;;;27.10;20.52;;;;;;;23.08;85.60;99752.91;2744272;84;21037;-90
2022/08/18 00:38:57;;;;;;;22.07;17.92;;;;;;;22.99;86.12;99746.12;2722192;86;21503;-90
2022/08/18 00:43:03;;;;;;;26.62;17.35;;;;;;;22.97;86.00;99753.11;2735341;84;21085;-89
2022/08/18 00:47:05;;;;;;;19.87;15.93;;;;;;;22.94;85.87;99754.91;2738624;84;21546;-89
2022/08/18 00:51:18;;;;;;;21.93;18.23;;;;;;;22.96;85.91;99745.20;2740821;84;21580;-89
2022/08/18 00:55:21;;;;;;;19.50;16.85;;;;;;;22.98;85.39;99740.39;2729443;86;21021;-89
2022/08/18 00:59:46;;;;;;;22.32;15.63;;;;;;;22.99;85.05;99743.92;2729331;84;21022;-89
2022/08/18 01:03:53;;;;;;;29.25;21.45;;;;;;;22.95;85.21;99739.48;2732804;84;21077;-90
2022/08/18 01:07:55;;;;;;;28.60;21.57;;;;;;;22.81;87.31;99745.55;2763169;84;21017;-90
2022/08/18 01:11:56;;;;;;;24.50;21.00;;;;;;;22.71;87.84;99735.70;2720017;84;20994;-90
2022/08/18 01:21:49;;;;;;;28.95;22.02;;;;;;;22.58;88.47;99736.08;2762264;84;21045;-90
2022/08/18 01:28:49;;;;;;;22.00;19.62;;;;;;;22.33;90.38;99737.38;2763787;84;21057;-90
2022/08/18 01:32:52;;;;;;;25.02;19.90;;;;;;;22.30;90.12;99745.91;2763239;84;21539;-89
2022/08/18 01:36:55;;;;;;;29.20;20.70;;;;;;;22.31;89.87;99748.41;2732453;84;30286;-90
2022/08/18 01:40:56;;;;;;;20.25;16.97;;;;;;;22.31;89.99;99746.25;2763658;84;21019;-90
2022/08/18 01:44:58;;;;;;;22.15;15.13;;;;;;;22.15;91.56;99743.49;2690068;86;21041;-90
2022/08/18 01:49:02;;;;;;;18.00;14.23;;;;;;;22.05;91.38;99737.19;2714899;84;21069;-90
2022/08/18 01:53:04;;;;;;;23.67;17.87;;;;;;;21.92;92.60;99734.02;2762915;84;21045;-89
2022/08/18 01:57:05;;;;;;;16.30;13.93;;;;;;;21.93;92.06;99727.55;2763002;84;21135;-90
2022/08/18 02:01:07;;;;;;;17.27;13.30;;;;;;;21.81;93.60;99726.88;2709021;84;21104;-90
2022/08/18 02:05:14;;;;;;;20.32;11.78;;;;;;;21.77;92.85;99731.04;2762728;84;21032;-89
2022/08/18 02:09:15;;;;;;;14.98;13.03;;;;;;;21.69;93.65;99725.88;2762589;84;21061;-89
2022/08/18 02:13:17;;;;;;;18.77;14.90;;;;;;;21.64;94.03;99733.77;2761909;84;21033;-89
2022/08/18 02:17:18;;;;;;;15.70;13.85;;;;;;;21.54;95.56;99728.27;2762780;84;21392;-90
2022/08/18 02:21:20;;;;;;;21.73;14.38;;;;;;;21.54;95.72;99732.86;2762569;84;21028;-89
2022/08/18 02:25:22;;;;;;;16.77;14.93;;;;;;;21.48;96.25;99730.47;2762693;84;21001;-90
2022/08/18 02:29:23;;;;;;;17.80;15.20;;;;;;;21.52;95.03;99731.70;2711558;84;21454;-89
2022/08/18 02:33:24;;;;;;;19.62;15.75;;;;;;;21.62;94.55;99740.73;2732478;84;20981;-89
2022/08/18 02:37:26;;;;;;;20.90;14.38;;;;;;;21.74;93.79;99742.30;2763078;84;21035;-89
2022/08/18 02:41:28;;;;;;;18.70;15.05;;;;;;;21.66;94.41;99728.47;2762431;84;21009;-90
2022/08/18 02:45:29;;;;;;;26.42;17.45;;;;;;;21.57;95.15;99724.82;2764699;84;20998;-90
2022/08/18 02:49:30;;;;;;;21.30;16.27;;;;;;;21.54;94.82;99722.86;2763249;84;21038;-90
2022/08/18 02:53:32;;;;;;;20.80;16.60;;;;;;;21.67;94.45;99719.84;2762931;84;21045;-90
2022/08/18 02:57:34;;;;;;;24.02;17.55;;;;;;;21.85;93.71;99721.03;2761718;84;21010;-90
2022/08/18 03:01:40;;;;;;;19.73;15.95;;;;;;;21.93;92.10;99716.72;2708244;87;21080;-90
2022/08/18 03:05:41;;;;;;;15.32;13.70;;;;;;;21.99;91.06;99717.20;2686748;87;21074;-91
2022/08/18 03:09:43;;;;;;;24.65;20.70;;;;;;;22.05;90.05;99720.94;2668862;87;21022;-90
2022/08/18 03:13:45;;;;;;;30.32;21.30;;;;;;;22.06;90.52;99719.37;2663730;87;21118;-90
2022/08/18 03:17:46;;;;;;;24.35;17.82;;;;;;;22.01;91.62;99721.06;2740254;85;21539;-90
2022/08/18 03:21:47;;;;;;;25.02;19.82;;;;;;;21.85;92.87;99725.91;2746758;86;21033;-89
2022/08/18 03:25:50;;;;;;;22.93;18.75;;;;;;;21.81;92.59;99728.23;2707231;86;21046;-89
2022/08/18 03:29:52;;;;;;;29.65;21.57;;;;;;;21.73;93.19;99734.41;2657966;86;21105;-90
2022/08/18 03:33:55;;;;;;;27.20;20.85;;;;;;;21.73;93.17;99731.70;2663985;88;21047;-90
2022/08/18 03:38:00;;;;;;;27.75;21.62;;;;;;;21.83;92.99;99734.27;2688588;87;21026;-90
2022/08/18 03:42:01;;;;;;;25.70;19.02;;;;;;;21.77;92.78;99744.57;2731699;85;21052;-89
2022/08/18 03:46:10;;;;;;;25.90;21.57;;;;;;;21.78;92.84;99743.52;2732654;86;21037;-90
2022/08/18 03:50:12;;;;;;;22.02;19.65;;;;;;;21.85;92.36;99752.98;2732392;87;21587;-90
2022/08/18 03:54:16;;;;;;;20.70;17.37;;;;;;;21.91;91.86;99757.56;2732088;85;21070;-90
2022/08/18 03:58:17;;;;;;;26.35;19.70;;;;;;;21.97;91.42;99756.70;2692041;86;21099;-90
2022/08/18 04:02:19;;;;;;;30.15;25.05;;;;;;;22.04;90.88;99753.12;2708303;85;21504;-88
2022/08/18 04:06:25;;;;;;;22.65;19.32;;;;;;;22.04;90.67;99745.84;2713567;85;21527;-90
2022/08/18 04:10:26;;;;;;;22.52;17.95;;;;;;;22.09;91.03;99756.86;2722523;85;21039;-90
2022/08/18 04:14:30;;;;;;;28.12;19.37;;;;;;;22.10;91.00;99757.67;2680865;86;21040;-90
2022/08/18 04:18:31;;;;;;;35.78;22.70;;;;;;;22.19;91.64;99763.67;2738471;86;21543;-90
2022/08/18 04:22:33;;;;;;;49.27;24.10;;;;;;;22.35;91.42;99767.78;2745945;86;21027;-90
2022/08/18 04:26:38;;;;;;;42.93;26.35;;;;;;;22.46;91.06;99763.56;2726020;85;21071;-91
2022/08/18 04:30:40;;;;;;;26.75;20.30;;;;;;;22.61;91.33;99764.64;2699024;86;21016;-89
2022/08/18 04:34:41;;;;;;;20.72;17.35;;;;;;;22.75;89.96;99761.31;2699476;86;21064;-90
2022/08/18 04:38:43;;;;;;;24.57;19.50;;;;;;;22.85;89.36;99761.67;2677146;86;21087;-89
2022/08/18 04:42:45;;;;;;;23.30;20.05;;;;;;;23.00;89.38;99757.81;2677986;86;21064;-90
2022/08/18 04:46:50;;;;;;;29.57;22.60;;;;;;;23.13;88.70;99763.64;2699727;86;21375;-90
2022/08/18 04:50:52;;;;;;;25.40;20.12;;;;;;;23.37;88.59;99759.27;2677284;86;21050;-91
2022/08/18 04:54:53;;;;;;;36.60;20.95;;;;;;;23.58;87.53;99762.61;2631735;88;21001;-90
2022/08/18 04:59:03;;;;;;;26.77;18.98;;;;;;;23.77;86.90;99758.84;2714791;85;21002;-90
2022/08/18 05:03:04;;;;;;;24.85;20.02;;;;;;;23.89;86.01;99752.67;2763931;84;21016;-90
2022/08/18 05:07:09;;;;;;;22.22;18.55;;;;;;;23.94;85.57;99752.81;2783410;84;21021;-90
2022/08/18 05:11:10;;;;;;;24.52;20.10;;;;;;;23.96;86.00;99754.25;2783806;84;21452;-90
2022/08/18 05:15:11;;;;;;;27.52;19.32;;;;;;;23.98;85.45;99763.55;2763551;84;21034;-90
2022/08/18 05:19:13;;;;;;;30.32;21.55;;;;;;;24.05;85.76;99769.75;2783580;84;21413;-90
2022/08/18 05:23:16;;;;;;;24.75;19.98;;;;;;;24.05;85.29;99776.54;2783356;84;21010;-90
2022/08/18 05:27:17;;;;;;;25.70;21.50;;;;;;;24.07;85.40;99770.34;2763839;84;20998;-90
2022/08/18 05:31:22;;;;;;;18.60;16.60;;;;;;;23.99;85.56;99768.44;2783367;84;21081;-88
2022/08/18 05:35:28;;;;;;;43.80;17.43;;;;;;;23.93;86.11;99766.09;2783520;84;21014;-89
2022/08/18 05:39:41;;;;;;;20.82;18.50;;;;;;;24.03;87.24;99762.36;2781189;84;20995;-91
2022/08/18 05:43:45;;;;;;;18.87;16.82;;;;;;;24.31;86.16;99765.02;2782844;84;21038;-90
2022/08/18 05:47:47;;;;;;;20.80;17.50;;;;;;;24.71;84.11;99766.88;2764169;84;21083;-92
2022/08/18 05:51:56;;;;;;;21.45;17.12;;;;;;;25.05;83.63;99768.03;2783661;84;21037;-91
2022/08/18 06:00:24;;;;;;;17.80;15.80;;;;;;;25.58;81.61;99764.66;2761567;85;21670;-90
2022/08/18 06:04:43;;;;;;;20.55;16.57;;;;;;;25.85;80.59;99775.03;2746739;86;20979;-90
2022/08/18 06:09:04;;;;;;;23.87;17.05;;;;;;;26.15;78.76;99764.48;2722999;85;21130;-91
2022/08/18 06:13:08;;;;;;;21.85;16.40;;;;;;;26.51;76.26;99769.27;2755001;86;21503;-91
2022/08/18 06:17:35;;;;;;;21.95;16.90;;;;;;;26.87;74.07;99761.74;2798119;84;20984;-89
2022/08/18 06:21:51;;;;;;;20.08;17.15;;;;;;;27.18;72.69;99769.08;2742377;84;21018;-90
2022/08/18 06:26:12;;;;;;;18.98;15.23;;;;;;;27.54;71.71;99766.07;2734020;85;21062;-92
2022/08/18 06:30:22;;;;;;;17.15;14.98;;;;;;;27.84;70.32;99763.48;2709231;86;21577;-91
2022/08/18 06:34:50;;;;;;;23.77;17.42;;;;;;;28.08;70.15;99765.39;2723067;86;21042;-90
2022/08/18 06:39:25;;;;;;;17.62;14.15;;;;;;;28.28;68.91;99757.16;2707504;86;21008;-91
2022/08/18 06:43:28;;;;;;;21.62;15.00;;;;;;;28.44;68.88;99768.27;2760250;84;20967;-90
2022/08/18 06:47:44;;;;;;;23.92;15.48;;;;;;;28.67;67.52;99764.93;2754258;84;21016;-90
2022/08/18 06:51:45;;;;;;;43.08;19.65;;;;;;;28.75;67.76;99769.39;2771037;83;21051;-91
2022/08/18 06:55:49;;;;;;;14.98;13.48;;;;;;;28.86;68.05;99769.53;2704779;86;21066;-91
2022/08/18 07:00:02;;;;;;;17.73;14.93;;;;;;;28.79;68.96;99772.44;2701872;86;21048;-91
2022/08/18 07:04:05;;;;;;;23.25;15.28;;;;;;;29.12;68.00;99763.72;2715442;86;21009;-90
2022/08/18 07:08:35;;;;;;;20.17;15.68;;;;;;;29.37;67.82;99756.75;2713156;86;21036;-92
2022/08/18 07:12:37;;;;;;;15.23;12.68;;;;;;;29.26;66.51;99719.42;2706091;86;21007;-91
2022/08/18 07:16:38;;;;;;;16.30;13.48;;;;;;;29.61;66.49;99761.31;2721819;86;21022;-90
2022/08/18 07:20:54;;;;;;;16.17;13.55;;;;;;;29.79;66.73;99758.65;2665005;87;21048;-91
2022/08/18 07:24:59;;;;;;;15.45;12.93;;;;;;;29.95;66.91;99759.25;2714995;84;21088;-92
2022/08/18 07:29:14;;;;;;;16.00;14.33;;;;;;;30.19;65.38;99758.27;2729518;86;21081;-92
2022/08/18 07:33:21;;;;;;;16.10;10.55;;;;;;;30.31;64.26;99752.02;2724837;86;21055;-92
2022/08/18 07:37:30;;;;;;;14.45;12.23;;;;;;;30.57;63.03;99753.41;2746116;85;21052;-92
2022/08/18 07:41:43;;;;;;;21.73;19.40;;;;;;;30.73;62.10;99750.16;2727291;86;21016;-91
2022/08/18 07:45:46;;;;;;;16.77;15.18;;;;;;;31.10;62.60;99759.22;2737400;86;21049;-92
2022/08/18 07:49:48;;;;;;;16.65;12.63;;;;;;;31.24;60.93;99761.41;2741983;86;21024;-92
2022/08/18 07:54:01;;;;;;;14.38;12.85;;;;;;;31.34;61.35;99752.59;2737730;85;21649;-92
2022/08/18 07:58:31;;;;;;;15.45;13.95;;;;;;;31.43;60.72;99756.98;2709262;86;21004;-91
2022/08/18 08:02:47;;;;;;;13.13;11.20;;;;;;;31.47;61.03;99757.25;2751127;83;21580;-93
2022/08/18 08:07:05;;;;;;;32.20;13.25;;;;;;;31.57;59.73;99764.11;2742803;84;21043;-92
2022/08/18 08:11:47;;;;;;;13.43;10.15;;;;;;;31.70;61.22;99768.19;2713157;87;21013;-92
2022/08/18 08:16:11;;;;;;;15.50;11.22;;;;;;;31.87;58.79;99767.06;2699215;86;21068;-92
2022/08/18 08:20:26;;;;;;;14.45;11.38;;;;;;;32.11;59.07;99775.45;2708436;85;20989;-91
2022/08/18 08:24:47;;;;;;;16.15;14.47;;;;;;;32.22;58.04;99778.16;2740007;86;20984;-91
2022/08/18 08:29:24;;;;;;;10.95;9.95;;;;;;;32.35;58.74;99784.45;2759595;84;20984;-92
2022/08/18 08:33:55;;;;;;;14.03;9.63;;;;;;;32.36;59.63;99787.48;2765763;85;21016;-92
2022/08/18 08:38:08;;;;;;;13.80;10.40;;;;;;;32.54;58.08;99785.17;2714981;85;21035;-92
2022/08/18 08:42:30;;;;;;;16.15;10.45;;;;;;;32.69;57.81;99802.13;2758852;83;21033;-92
2022/08/18 08:46:37;;;;;;;17.85;10.13;;;;;;;32.54;59.40;99796.98;2789880;84;21008;-92
2022/08/18 08:50:52;;;;;;;14.00;8.95;;;;;;;32.79;57.64;99792.97;2762082;84;21015;-93
2022/08/18 08:54:59;;;;;;;16.73;10.50;;;;;;;32.83;58.21;99792.12;2761564;84;20996;-93
2022/08/18 08:59:11;;;;;;;11.30;10.20;;;;;;;32.98;56.68;99787.60;2713188;85;21104;-93
2022/08/18 09:03:37;;;;;;;13.53;10.23;;;;;;;33.09;57.17;99779.52;2750534;84;21016;-92
2022/08/18 09:08:02;;;;;;;13.55;9.05;;;;;;;33.11;56.23;99774.55;2772644;85;20978;-92
2022/08/18 09:12:10;;;;;;;13.48;10.38;;;;;;;33.13;55.06;99777.02;2766332;84;21075;-92
2022/08/18 09:16:44;;;;;;;12.65;9.80;;;;;;;33.15;55.09;99774.22;2752173;85;21581;-91
2022/08/18 09:21:21;;;;;;;13.10;10.28;;;;;;;33.25;55.23;99765.61;2752006;83;21002;-91
2022/08/18 09:25:34;;;;;;;23.60;12.33;;;;;;;33.25;55.23;99765.61;2750266;85;21651;-90
2022/08/18 09:29:57;;;;;;;32.93;20.62;;;;;;;33.24;55.55;99763.39;2744369;85;20978;-93
2022/08/18 09:34:21;;;;;;;10.63;9.47;;;;;;;33.37;54.79;99758.32;2747437;84;21077;-91
2022/08/18 09:43:13;;;;;;;14.57;10.37;;;;;;;33.41;53.72;99740.91;2745567;85;21076;-92
2022/08/18 09:47:27;;;;;;;12.30;10.78;;;;;;;33.38;52.35;99737.91;2760221;84;21030;-93
2022/08/18 09:51:35;;;;;;;12.45;11.08;;;;;;;33.23;51.86;99736.95;2756845;84;21041;-89
2022/08/18 09:55:42;;;;;;;14.18;12.25;;;;;;;33.38;54.43;99720.80;2759487;84;21065;-92
2022/08/18 09:59:49;;;;;;;12.93;9.28;;;;;;;33.39;53.17;99715.55;2738789;83;20990;-91
2022/08/18 10:04:27;;;;;;;13.70;10.35;;;;;;;33.35;51.27;99717.27;2717671;85;21479;-93
2022/08/18 10:08:55;;;;;;;16.17;11.45;;;;;;;33.36;51.92;99707.88;2738303;86;21029;-93
2022/08/18 10:13:28;;;;;;;18.87;13.43;;;;;;;33.34;52.51;99694.95;2628249;88;21638;-92
2022/08/18 10:18:09;;;;;;;14.10;10.58;;;;;;;33.37;52.85;99679.78;2633708;88;21059;-93
2022/08/18 10:22:11;;;;;;;13.72;10.38;;;;;;;33.37;50.56;99673.69;2633562;88;21038;-91
2022/08/18 10:26:39;;;;;;;16.20;10.82;;;;;;;33.46;50.33;99669.77;2633426;88;21038;-92
2022/08/18 10:30:49;;;;;;;12.40;9.80;;;;;;;33.47;51.86;99670.86;2693128;87;21035;-92
2022/08/18 10:34:54;;;;;;;12.80;10.68;;;;;;;33.47;52.20;99672.23;2692610;87;21102;-93
2022/08/18 10:38:56;;;;;;;11.00;8.75;;;;;;;33.49;52.18;99669.74;2693964;87;21089;-92
2022/08/18 10:43:12;;;;;;;10.48;9.00;;;;;;;33.62;50.12;99662.14;2658294;87;21015;-93
2022/08/18 10:47:24;;;;;;;10.88;7.83;;;;;;;33.64;51.02;99670.09;2698285;87;21071;-94
2022/08/18 10:51:36;;;;;;;8.60;7.80;;;;;;;33.65;47.68;99676.70;2810322;83;21004;-93
2022/08/18 10:55:52;;;;;;;8.08;7.30;;;;;;;33.58;48.28;99673.47;2658173;88;21024;-94
2022/08/18 11:00:18;;;;;;;13.65;9.25;;;;;;;33.65;47.97;99659.33;2742605;85;21043;-93
2022/08/18 11:04:31;;;;;;;8.55;7.70;;;;;;;33.62;48.74;99663.52;2723166;85;21041;-94
2022/08/18 11:08:38;;;;;;;9.55;8.53;;;;;;;33.64;48.43;99671.47;2737662;85;21041;-89
2022/08/18 11:13:03;;;;;;;7.55;6.78;;;;;;;33.69;46.12;99670.85;2723081;85;21081;-92
2022/08/18 11:17:27;;;;;;;10.72;8.30;;;;;;;33.78;46.37;99678.45;2747177;85;21556;-93
2022/08/18 11:21:43;;;;;;;8.25;7.20;;;;;;;33.87;47.27;99667.03;2750141;85;20988;-92
2022/08/18 11:25:45;;;;;;;7.47;6.72;;;;;;;33.95;46.34;99651.17;2730433;85;20991;-91
2022/08/18 11:29:47;;;;;;;14.00;9.15;;;;;;;34.00;46.02;99645.64;2661285;87;21102;-94
2022/08/18 11:33:48;;;;;;;8.65;7.75;;;;;;;34.01;47.43;99642.30;2722931;86;21040;-92
2022/08/18 11:38:00;;;;;;;8.78;7.90;;;;;;;34.16;46.89;99628.82;2726965;86;21040;-92
2022/08/18 11:42:02;;;;;;;8.60;7.75;;;;;;;34.25;46.94;99629.80;2746257;86;21178;-92
2022/08/18 11:46:24;;;;;;;10.45;8.20;;;;;;;34.35;45.05;99632.95;2741371;86;21019;-92
2022/08/18 11:50:29;;;;;;;11.53;8.18;;;;;;;34.29;45.71;99642.41;2719078;85;21563;-93
2022/08/18 11:54:42;;;;;;;8.98;8.18;;;;;;;34.31;45.96;99625.81;2760501;84;20989;-93
2022/08/18 11:58:59;;;;;;;9.75;8.85;;;;;;;34.28;46.61;99627.80;2817524;83;20980;-93
2022/08/18 12:03:14;;;;;;;13.03;8.73;;;;;;;34.31;46.63;99631.91;2833409;83;21046;-92
2022/08/18 12:07:16;;;;;;;9.77;8.77;;;;;;;34.28;47.52;99628.35;2820033;82;21011;-92
2022/08/18 12:11:23;;;;;;;10.63;8.90;;;;;;;34.30;46.26;99633.84;2832788;80;21039;-94
2022/08/18 12:15:29;;;;;;;10.40;9.05;;;;;;;34.42;46.90;99629.80;2835471;82;21249;-93
2022/08/18 12:19:31;;;;;;;8.73;7.92;;;;;;;34.45;47.26;99627.81;2777236;84;21011;-94
2022/08/18 12:23:35;;;;;;;8.88;7.55;;;;;;;34.42;46.16;99633.94;2835140;82;21031;-93
2022/08/18 12:27:36;;;;;;;9.93;8.05;;;;;;;34.50;46.50;99633.27;2809833;83;21055;-93
2022/08/18 12:31:39;;;;;;;14.05;9.58;;;;;;;34.54;45.81;99626.01;2810960;83;21019;-93
2022/08/18 12:35:41;;;;;;;9.18;7.33;;;;;;;34.71;46.70;99626.83;2834961;82;20999;-92
2022/08/18 12:39:43;;;;;;;8.85;7.95;;;;;;;34.80;45.80;99624.18;2832005;83;21059;-93
2022/08/18 12:43:44;;;;;;;9.10;7.60;;;;;;;34.80;45.34;99625.56;2833056;83;20992;-93
2022/08/18 12:47:46;;;;;;;23.73;11.33;;;;;;;34.68;46.43;99626.61;2819523;83;21078;-93
2022/08/18 12:51:49;;;;;;;10.30;7.78;;;;;;;34.83;46.33;99636.55;2783364;83;21054;-93
2022/08/18 12:55:50;;;;;;;9.50;8.55;;;;;;;34.81;46.78;99646.53;2840443;82;21027;-93
2022/08/18 12:59:53;;;;;;;13.05;10.18;;;;;;;34.84;45.96;99630.73;2823581;81;21058;-94
2022/08/18 13:03:56;;;;;;;10.00;8.48;;;;;;;34.80;45.26;99629.70;2817480;83;21008;-92
2022/08/18 13:08:01;;;;;;;26.60;12.47;;;;;;;34.79;45.38;99630.83;2748800;84;21458;-94
2022/08/18 13:12:05;;;;;;;10.78;8.55;;;;;;;34.74;46.87;99629.52;2704549;85;21087;-91
2022/08/18 13:16:07;;;;;;;45.58;15.05;;;;;;;34.75;46.52;99620.95;2760752;84;21024;-93
2022/08/18 13:20:15;;;;;;;9.78;8.78;;;;;;;34.70;47.01;99616.08;2709016;85;20996;-92
2022/08/18 13:24:17;;;;;;;14.85;9.93;;;;;;;34.74;46.99;99606.05;2757858;85;21019;-91
2022/08/18 13:28:18;;;;;;;12.50;8.78;;;;;;;34.77;46.47;99594.97;2720939;86;21792;-92
2022/08/18 13:32:20;;;;;;;9.90;8.90;;;;;;;34.81;45.54;99590.46;2712019;86;20985;-94
2022/08/18 13:36:24;;;;;;;12.53;8.83;;;;;;;34.87;46.57;99596.13;2755026;84;21587;-92
2022/08/18 13:40:26;;;;;;;9.55;7.92;;;;;;;34.94;46.08;99592.97;2760815;85;20966;-93
2022/08/18 13:44:27;;;;;;;11.80;8.95;;;;;;;34.83;46.15;99586.28;2761782;84;21014;-92
2022/08/18 13:48:30;;;;;;;11.08;9.98;;;;;;;34.98;45.92;99588.45;2738106;84;21046;-93
2022/08/18 13:52:32;;;;;;;19.12;10.10;;;;;;;35.06;45.71;99571.76;2665183;86;21036;-92
2022/08/18 13:56:34;;;;;;;14.55;8.68;;;;;;;34.92;46.17;99577.27;2717601;86;21024;-91
2022/08/18 14:00:35;;;;;;;9.35;8.43;;;;;;;34.81;46.04;99562.84;2688535;86;21090;-95
2022/08/18 14:04:37;;;;;;;12.25;8.78;;;;;;;34.79;45.71;99559.02;2755309;84;21565;-91
2022/08/18 14:08:39;;;;;;;10.85;7.65;;;;;;;34.94;45.93;99555.12;2746931;85;21070;-91
2022/08/18 14:12:41;;;;;;;9.08;8.20;;;;;;;35.01;44.87;99555.55;2684433;86;20974;-92
2022/08/18 14:16:43;;;;;;;11.95;9.10;;;;;;;34.99;46.57;99555.59;2685728;86;21064;-92
2022/08/18 14:29:24;;;;;;;10.35;7.50;;;;;;;35.10;45.16;99544.59;2722497;85;21074;-92
2022/08/18 14:33:29;;;;;;;9.55;8.00;;;;;;;35.02;45.08;99539.81;2708385;86;20988;-93
2022/08/18 14:37:31;;;;;;;15.75;8.15;;;;;;;35.05;44.33;99530.06;2749562;85;21026;-91
2022/08/18 14:41:34;;;;;;;10.93;8.08;;;;;;;35.03;44.48;99522.91;2762897;85;21010;-89
2022/08/18 14:45:35;;;;;;;16.07;9.60;;;;;;;34.93;45.28;99529.17;2753648;85;21613;-92
2022/08/18 14:49:38;;;;;;;11.97;9.80;;;;;;;34.85;44.57;99521.05;2751385;85;21050;-93
2022/08/18 14:53:40;;;;;;;9.18;7.55;;;;;;;34.88;44.20;99519.05;2726595;85;21079;-94
2022/08/18 14:57:42;;;;;;;10.58;8.38;;;;;;;34.85;44.09;99527.95;2734047;84;21523;-93
2022/08/18 15:01:43;;;;;;;10.80;9.80;;;;;;;34.69;44.32;99542.64;2758880;85;21631;-92
2022/08/18 15:05:44;;;;;;;12.68;10.00;;;;;;;34.35;45.55;99545.17;2759679;84;20990;-93
2022/08/18 15:09:46;;;;;;;10.10;9.20;;;;;;;34.10;46.30;99549.48;2769693;84;21069;-93
2022/08/18 15:13:47;;;;;;;12.13;10.58;;;;;;;33.98;47.01;99562.34;2775065;84;21029;-89
2022/08/18 15:17:49;;;;;;;11.43;10.32;;;;;;;33.85;46.34;99565.85;2777053;84;21014;-94
2022/08/18 15:26:11;;;;;;;11.25;10.15;;;;;;;33.81;46.15;99574.47;2778541;84;21046;-91
2022/08/18 15:30:15;;;;;;;11.20;9.73;;;;;;;33.81;46.43;99566.20;2771460;84;21063;-93
2022/08/18 15:34:17;;;;;;;12.58;10.20;;;;;;;33.80;46.79;99572.80;2757240;84;21053;-93
2022/08/18 15:42:33;;;;;;;10.78;9.78;;;;;;;33.71;46.88;99544.54;2951130;79;22992;-92
2022/08/18 15:46:37;;;;;;;13.10;10.30;;;;;;;33.74;47.42;99539.80;2869941;79;21012;-93
2022/08/18 15:50:39;;;;;;;12.05;10.78;;;;;;;33.79;47.02;99529.80;2871908;79;20977;-92
2022/08/18 15:54:41;;;;;;;14.50;11.25;;;;;;;33.84;47.16;99526.98;2901808;79;21052;-91
2022/08/18 15:58:45;;;;;;;12.33;11.12;;;;;;;33.82;47.34;99518.20;2821134;82;21024;-92
2022/08/18 16:02:55;;;;;;;12.13;10.87;;;;;;;33.86;47.93;99517.27;2817584;83;21025;-91
2022/08/18 16:06:56;;;;;;;10.05;9.03;;;;;;;33.83;47.08;99521.21;2774403;83;21235;-91
2022/08/18 16:10:57;;;;;;;11.48;9.38;;;;;;;33.85;47.50;99507.36;2812323;81;21102;-90
2022/08/18 16:14:59;;;;;;;10.18;9.18;;;;;;;33.87;47.10;99503.73;2810626;82;21146;-92
2022/08/18 16:19:00;;;;;;;12.35;10.60;;;;;;;33.90;47.25;99496.27;2819184;80;21004;-92
2022/08/18 16:23:04;;;;;;;11.45;10.25;;;;;;;33.87;48.00;99486.39;2869318;81;21012;-92
2022/08/18 16:27:07;;;;;;;16.67;10.03;;;;;;;33.80;48.23;99475.74;2865072;82;21047;-90
2022/08/18 16:31:09;;;;;;;12.93;9.97;;;;;;;33.73;48.56;99457.40;2838971;82;21724;-92
2022/08/18 16:35:11;;;;;;;11.60;9.80;;;;;;;33.64;48.58;99456.44;2784014;82;21034;-92
2022/08/18 16:39:12;;;;;;;9.90;8.35;;;;;;;33.56;48.88;99453.25;2848928;83;21118;-90
2022/08/18 16:43:14;;;;;;;13.50;10.70;;;;;;;33.43;48.75;99446.58;2841018;83;20983;-94
2022/08/18 16:47:19;;;;;;;17.12;9.83;;;;;;;33.33;49.38;99442.55;2846901;81;21050;-91
2022/08/18 16:51:24;;;;;;;9.25;8.45;;;;;;;33.19;49.63;99439.73;2880118;81;21070;-90
2022/08/18 16:55:26;;;;;;;12.35;8.83;;;;;;;33.11;50.21;99434.88;2880070;81;21102;-93
2022/08/18 17:04:05;;;;;;;12.53;9.35;;;;;;;32.82;51.38;99432.52;2875375;81;21409;-92
2022/08/18 17:08:07;;;;;;;9.85;8.33;;;;;;;32.66;51.90;99443.46;2767483;83;21050;-92
2022/08/18 17:12:08;;;;;;;10.65;8.60;;;;;;;32.51;52.37;99449.41;2838269;81;21133;-90
2022/08/18 17:16:11;;;;;;;12.18;10.60;;;;;;;32.37;52.73;99439.67;2836633;81;21094;-90
2022/08/18 17:20:13;;;;;;;8.73;7.92;;;;;;;32.23;52.89;99442.27;2818794;84;21082;-92
2022/08/18 17:24:14;;;;;;;10.08;9.08;;;;;;;32.09;53.01;99440.75;2835651;80;21034;-91
2022/08/18 17:28:19;;;;;;;11.18;9.83;;;;;;;31.97;53.31;99446.64;2849341;81;21054;-91
2022/08/18 17:32:30;;;;;;;11.00;7.47;;;;;;;31.85;53.51;99461.34;2873044;82;21090;-91
2022/08/18 17:36:54;;;;;;;14.78;8.55;;;;;;;31.73;53.77;99469.37;2844094;82;21035;-92
2022/08/18 17:40:58;;;;;;;8.43;7.73;;;;;;;31.60;54.37;99465.36;2810644;81;21039;-92
2022/08/18 17:45:04;;;;;;;11.87;9.27;;;;;;;31.43;54.73;99465.73;2810412;83;21037;-91
2022/08/18 17:49:23;;;;;;;10.43;8.65;;;;;;;31.26;55.21;99475.74;2745602;81;21070;-90
2022/08/18 17:53:24;;;;;;;14.10;9.73;;;;;;;31.12;55.64;99486.52;2814999;82;21011;-92
2022/08/18 17:57:31;;;;;;;11.75;8.65;;;;;;;30.97;55.75;99498.94;2793723;82;21050;-91
2022/08/18 18:01:34;;;;;;;8.83;7.92;;;;;;;30.76;56.43;99504.52;2857874;79;21077;-93
2022/08/18 18:05:41;;;;;;;14.63;9.68;;;;;;;30.64;56.70;99500.14;2874649;80;21058;-89
2022/08/18 18:09:48;;;;;;;9.93;8.83;;;;;;;30.48;57.34;99511.69;2912207;80;20962;-91
2022/08/18 18:13:50;;;;;;;10.23;8.73;;;;;;;30.33;57.36;99518.57;2868250;79;21004;-91
2022/08/18 18:17:51;;;;;;;8.78;7.70;;;;;;;30.23;57.57;99523.52;2857998;80;20963;-92
2022/08/18 18:21:58;;;;;;;9.83;8.83;;;;;;;30.14;57.33;99527.36;2838790;80;21003;-91
2022/08/18 18:26:24;;;;;;;12.23;8.98;;;;;;;30.11;57.56;99533.41;2851277;80;21059;-89
2022/08/18 18:30:31;;;;;;;10.72;9.63;;;;;;;30.03;57.85;99535.34;2836611;82;21511;-91
2022/08/18 18:35:05;;;;;;;15.63;8.75;;;;;;;29.90;58.33;99531.20;2859141;81;20980;-90
2022/08/18 18:39:21;;;;;;;13.08;10.25;;;;;;;29.81;59.01;99531.45;2873012;79;20998;-92
2022/08/18 18:43:27;;;;;;;13.98;8.78;;;;;;;29.65;59.65;99525.95;2874855;79;21566;-93
2022/08/18 18:48:04;;;;;;;13.43;9.58;;;;;;;29.41;60.82;99524.24;2826612;82;21110;-90
2022/08/18 18:52:24;;;;;;;11.10;9.33;;;;;;;29.18;61.55;99525.81;2887501;79;21021;-91
2022/08/18 18:56:36;;;;;;;13.78;10.30;;;;;;;28.98;61.91;99509.31;2912425;79;21070;-92
2022/08/18 19:00:52;;;;;;;14.00;9.70;;;;;;;28.84;62.17;99511.16;2915994;79;21560;-91
2022/08/18 19:05:26;;;;;;;13.18;10.15;;;;;;;28.71;62.52;99508.90;2874567;79;20993;-91
2022/08/18 19:09:43;;;;;;;12.18;9.68;;;;;;;28.57;63.05;99503.89;2879681;79;21635;-93
2022/08/18 19:13:53;;;;;;;16.17;10.48;;;;;;;28.39;63.72;99502.96;2867479;80;21430;-89
2022/08/18 19:18:02;;;;;;;12.03;10.72;;;;;;;28.22;64.09;99489.74;2882489;80;21490;-92
2022/08/18 19:22:32;;;;;;;14.70;10.03;;;;;;;28.09;64.57;99481.39;2911229;80;21046;-92
2022/08/18 19:26:38;;;;;;;15.25;10.95;;;;;;;28.04;64.76;99475.09;2797426;82;21085;-90
2022/08/18 19:30:45;;;;;;;13.10;11.28;;;;;;;27.93;65.12;99458.60;2864791;80;20990;-91
2022/08/18 19:34:48;;;;;;;12.00;10.18;;;;;;;27.67;66.47;99422.61;2899172;80;21584;-92
2022/08/18 19:39:14;;;;;;;12.78;10.08;;;;;;;27.67;66.47;99422.61;2878379;80;21056;-92
2022/08/18 19:43:44;;;;;;;16.82;11.15;;;;;;;27.75;66.76;99432.52;2863334;80;21341;-93
2022/08/18 19:47:54;;;;;;;15.93;11.08;;;;;;;27.67;67.30;99426.16;2893559;80;21015;-88